sensor_id;sensor_type;location;lat;lon;timestamp;P1;durP1;ratioP1;P2;durP2;ratioP2
13309;SDS011;6723;48.256;16.402;2023-08-12T00:00:17;8.03;;;5.23;;
13309;SDS011;6723;48.256;16.402;2023-08-12T00:02:43;8.17;;;5.33;;
13309;SDS011;6723;48.256;16.402;2023-08-12T00:05:09;6.13;;;5.33;;
13309;SDS011;6723;48.256;16.402;2023-08-12T00:07:36;7.77;;;5.00;;
13309;SDS011;6723;48.256;16.402;2023-08-12T00:10:03;5.80;;;5.20;;
13309;SDS011;6723;48.256;16.402;2023-08-12T00:12:33;7.10;;;4.90;;
13309;SDS011;6723;48.256;16.402;2023-08-12T00:15:00;7.43;;;5.67;;
13309;SDS011;6723;48.256;16.402;2023-08-12T00:17:26;12.07;;;5.30;;
13309;SDS011;6723;48.256;16.402;2023-08-12T00:19:52;10.30;;;6.20;;
13309;SDS011;6723;48.256;16.402;2023-08-12T00:22:18;8.10;;;5.43;;
13309;SDS011;6723;48.256;16.402;2023-08-12T00:24:44;8.53;;;6.20;;
13309;SDS011;6723;48.256;16.402;2023-08-12T00:27:10;8.33;;;5.23;;
13309;SDS011;6723;48.256;16.402;2023-08-12T00:29:36;10.27;;;6.50;;
13309;SDS011;6723;48.256;16.402;2023-08-12T00:32:02;8.77;;;5.93;;
13309;SDS011;6723;48.256;16.402;2023-08-12T00:34:28;9.50;;;5.70;;
13309;SDS011;6723;48.256;16.402;2023-08-12T00:36:54;7.57;;;5.33;;
13309;SDS011;6723;48.256;16.402;2023-08-12T00:39:19;7.20;;;5.63;;
13309;SDS011;6723;48.256;16.402;2023-08-12T00:41:45;10.57;;;5.47;;
13309;SDS011;6723;48.256;16.402;2023-08-12T00:44:11;9.00;;;6.27;;
13309;SDS011;6723;48.256;16.402;2023-08-12T00:46:38;18.43;;;11.23;;
13309;SDS011;6723;48.256;16.402;2023-08-12T00:49:04;18.30;;;10.97;;
13309;SDS011;6723;48.256;16.402;2023-08-12T00:51:30;20.67;;;12.37;;
13309;SDS011;6723;48.256;16.402;2023-08-12T00:53:57;15.40;;;9.97;;
13309;SDS011;6723;48.256;16.402;2023-08-12T00:56:24;14.40;;;9.37;;
13309;SDS011;6723;48.256;16.402;2023-08-12T00:58:52;12.80;;;8.80;;
13309;SDS011;6723;48.256;16.402;2023-08-12T01:01:18;12.43;;;8.27;;
13309;SDS011;6723;48.256;16.402;2023-08-12T01:03:45;14.77;;;9.90;;
13309;SDS011;6723;48.256;16.402;2023-08-12T01:06:11;14.27;;;9.50;;
13309;SDS011;6723;48.256;16.402;2023-08-12T01:08:38;14.93;;;8.93;;
13309;SDS011;6723;48.256;16.402;2023-08-12T01:13:58;8.80;;;5.70;;
13309;SDS011;6723;48.256;16.402;2023-08-12T01:16:30;8.43;;;6.13;;
13309;SDS011;6723;48.256;16.402;2023-08-12T01:19:01;6.53;;;5.20;;
13309;SDS011;6723;48.256;16.402;2023-08-12T01:21:31;8.33;;;5.23;;
13309;SDS011;6723;48.256;16.402;2023-08-12T01:24:01;5.67;;;4.70;;
13309;SDS011;6723;48.256;16.402;2023-08-12T01:26:28;5.83;;;4.57;;
13309;SDS011;6723;48.256;16.402;2023-08-12T01:28:54;5.17;;;4.60;;
13309;SDS011;6723;48.256;16.402;2023-08-12T01:33:55;4.70;;;4.17;;
13309;SDS011;6723;48.256;16.402;2023-08-12T01:36:25;5.67;;;3.93;;
13309;SDS011;6723;48.256;16.402;2023-08-12T01:38:54;4.83;;;3.93;;
13309;SDS011;6723;48.256;16.402;2023-08-12T01:41:24;4.80;;;4.10;;
13309;SDS011;6723;48.256;16.402;2023-08-12T01:43:51;4.10;;;3.80;;
13309;SDS011;6723;48.256;16.402;2023-08-12T01:46:17;4.63;;;3.60;;
13309;SDS011;6723;48.256;16.402;2023-08-12T01:48:43;6.37;;;4.20;;
13309;SDS011;6723;48.256;16.402;2023-08-12T01:51:08;5.80;;;3.40;;
13309;SDS011;6723;48.256;16.402;2023-08-12T01:53:34;8.23;;;3.83;;
13309;SDS011;6723;48.256;16.402;2023-08-12T01:56:00;4.40;;;3.80;;
13309;SDS011;6723;48.256;16.402;2023-08-12T01:58:26;4.07;;;3.67;;
13309;SDS011;6723;48.256;16.402;2023-08-12T02:00:52;5.77;;;3.70;;
13309;SDS011;6723;48.256;16.402;2023-08-12T02:03:18;6.00;;;4.13;;
13309;SDS011;6723;48.256;16.402;2023-08-12T02:05:44;4.10;;;3.70;;
13309;SDS011;6723;48.256;16.402;2023-08-12T02:08:09;4.40;;;3.90;;
13309;SDS011;6723;48.256;16.402;2023-08-12T02:10:35;4.77;;;4.27;;
13309;SDS011;6723;48.256;16.402;2023-08-12T02:13:02;4.57;;;4.00;;
13309;SDS011;6723;48.256;16.402;2023-08-12T02:15:28;5.57;;;4.00;;
13309;SDS011;6723;48.256;16.402;2023-08-12T02:17:54;5.27;;;3.83;;
13309;SDS011;6723;48.256;16.402;2023-08-12T02:20:19;4.60;;;4.20;;
13309;SDS011;6723;48.256;16.402;2023-08-12T02:22:45;4.53;;;4.00;;
13309;SDS011;6723;48.256;16.402;2023-08-12T02:25:11;4.60;;;4.20;;
13309;SDS011;6723;48.256;16.402;2023-08-12T02:27:37;5.17;;;4.13;;
13309;SDS011;6723;48.256;16.402;2023-08-12T02:30:03;4.80;;;4.40;;
13309;SDS011;6723;48.256;16.402;2023-08-12T02:32:30;5.87;;;4.30;;
13309;SDS011;6723;48.256;16.402;2023-08-12T02:34:56;4.93;;;4.40;;
13309;SDS011;6723;48.256;16.402;2023-08-12T02:37:21;6.27;;;4.30;;
13309;SDS011;6723;48.256;16.402;2023-08-12T02:39:47;5.30;;;4.27;;
13309;SDS011;6723;48.256;16.402;2023-08-12T02:42:13;4.63;;;4.23;;
13309;SDS011;6723;48.256;16.402;2023-08-12T02:44:38;4.47;;;4.07;;
13309;SDS011;6723;48.256;16.402;2023-08-12T02:47:04;8.87;;;4.70;;
13309;SDS011;6723;48.256;16.402;2023-08-12T02:49:30;5.00;;;4.30;;
13309;SDS011;6723;48.256;16.402;2023-08-12T02:51:56;5.50;;;4.40;;
13309;SDS011;6723;48.256;16.402;2023-08-12T02:54:21;5.03;;;4.40;;
13309;SDS011;6723;48.256;16.402;2023-08-12T02:56:47;5.70;;;4.37;;
13309;SDS011;6723;48.256;16.402;2023-08-12T02:59:14;4.87;;;4.30;;
13309;SDS011;6723;48.256;16.402;2023-08-12T03:01:41;5.70;;;5.10;;
13309;SDS011;6723;48.256;16.402;2023-08-12T03:04:07;6.53;;;4.53;;
13309;SDS011;6723;48.256;16.402;2023-08-12T03:06:33;6.37;;;5.03;;
13309;SDS011;6723;48.256;16.402;2023-08-12T03:08:59;6.20;;;4.40;;
13309;SDS011;6723;48.256;16.402;2023-08-12T03:11:24;4.77;;;4.37;;
13309;SDS011;6723;48.256;16.402;2023-08-12T03:13:50;5.40;;;4.60;;
13309;SDS011;6723;48.256;16.402;2023-08-12T03:16:16;5.63;;;4.57;;
13309;SDS011;6723;48.256;16.402;2023-08-12T03:18:42;6.13;;;4.80;;
13309;SDS011;6723;48.256;16.402;2023-08-12T03:21:08;5.50;;;4.97;;
13309;SDS011;6723;48.256;16.402;2023-08-12T03:23:35;6.13;;;4.50;;
13309;SDS011;6723;48.256;16.402;2023-08-12T03:26:02;9.77;;;5.33;;
13309;SDS011;6723;48.256;16.402;2023-08-12T03:28:29;6.07;;;5.07;;
13309;SDS011;6723;48.256;16.402;2023-08-12T03:30:56;5.50;;;5.00;;
13309;SDS011;6723;48.256;16.402;2023-08-12T03:33:22;8.27;;;5.20;;
13309;SDS011;6723;48.256;16.402;2023-08-12T03:35:48;7.57;;;5.10;;
13309;SDS011;6723;48.256;16.402;2023-08-12T03:38:14;6.40;;;4.80;;
13309;SDS011;6723;48.256;16.402;2023-08-12T03:40:41;6.23;;;5.23;;
13309;SDS011;6723;48.256;16.402;2023-08-12T03:43:07;6.00;;;5.40;;
13309;SDS011;6723;48.256;16.402;2023-08-12T03:45:39;6.43;;;5.00;;
13309;SDS011;6723;48.256;16.402;2023-08-12T03:48:06;6.00;;;5.17;;
13309;SDS011;6723;48.256;16.402;2023-08-12T03:50:36;5.63;;;5.13;;
13309;SDS011;6723;48.256;16.402;2023-08-12T03:53:03;6.00;;;5.17;;
13309;SDS011;6723;48.256;16.402;2023-08-12T03:55:30;6.30;;;5.70;;
13309;SDS011;6723;48.256;16.402;2023-08-12T03:57:57;7.10;;;6.40;;
13309;SDS011;6723;48.256;16.402;2023-08-12T04:00:24;6.87;;;5.87;;
13309;SDS011;6723;48.256;16.402;2023-08-12T04:02:50;7.00;;;6.00;;
13309;SDS011;6723;48.256;16.402;2023-08-12T04:05:15;7.57;;;5.60;;
13309;SDS011;6723;48.256;16.402;2023-08-12T04:07:41;6.20;;;5.60;;
13309;SDS011;6723;48.256;16.402;2023-08-12T04:10:07;6.17;;;5.40;;
13309;SDS011;6723;48.256;16.402;2023-08-12T04:12:33;5.70;;;5.10;;
13309;SDS011;6723;48.256;16.402;2023-08-12T04:14:59;8.37;;;5.20;;
13309;SDS011;6723;48.256;16.402;2023-08-12T04:17:28;8.30;;;5.50;;
13309;SDS011;6723;48.256;16.402;2023-08-12T04:19:54;7.23;;;5.40;;
13309;SDS011;6723;48.256;16.402;2023-08-12T04:22:19;5.60;;;5.10;;
13309;SDS011;6723;48.256;16.402;2023-08-12T04:24:45;9.10;;;5.53;;
13309;SDS011;6723;48.256;16.402;2023-08-12T04:27:11;6.90;;;5.10;;
13309;SDS011;6723;48.256;16.402;2023-08-12T04:29:36;5.70;;;5.20;;
13309;SDS011;6723;48.256;16.402;2023-08-12T04:32:02;6.17;;;5.23;;
13309;SDS011;6723;48.256;16.402;2023-08-12T04:34:28;8.40;;;5.63;;
13309;SDS011;6723;48.256;16.402;2023-08-12T04:36:54;6.77;;;5.10;;
13309;SDS011;6723;48.256;16.402;2023-08-12T04:39:19;5.40;;;4.90;;
13309;SDS011;6723;48.256;16.402;2023-08-12T04:41:47;5.93;;;4.73;;
13309;SDS011;6723;48.256;16.402;2023-08-12T04:44:13;6.17;;;4.70;;
13309;SDS011;6723;48.256;16.402;2023-08-12T04:46:38;5.17;;;4.60;;
13309;SDS011;6723;48.256;16.402;2023-08-12T04:49:04;5.93;;;4.20;;
13309;SDS011;6723;48.256;16.402;2023-08-12T04:51:30;5.73;;;4.13;;
13309;SDS011;6723;48.256;16.402;2023-08-12T04:53:56;5.07;;;4.57;;
13309;SDS011;6723;48.256;16.402;2023-08-12T04:56:23;7.27;;;4.37;;
13309;SDS011;6723;48.256;16.402;2023-08-12T04:58:49;5.60;;;4.30;;
13309;SDS011;6723;48.256;16.402;2023-08-12T05:01:15;7.57;;;4.73;;
13309;SDS011;6723;48.256;16.402;2023-08-12T05:03:40;5.63;;;4.80;;
13309;SDS011;6723;48.256;16.402;2023-08-12T05:06:06;6.47;;;4.20;;
13309;SDS011;6723;48.256;16.402;2023-08-12T05:08:32;4.87;;;4.33;;
13309;SDS011;6723;48.256;16.402;2023-08-12T05:10:57;6.23;;;4.30;;
13309;SDS011;6723;48.256;16.402;2023-08-12T05:13:23;6.33;;;4.80;;
13309;SDS011;6723;48.256;16.402;2023-08-12T05:15:49;5.33;;;4.80;;
13309;SDS011;6723;48.256;16.402;2023-08-12T05:18:15;5.00;;;4.50;;
13309;SDS011;6723;48.256;16.402;2023-08-12T05:20:41;5.83;;;4.47;;
13309;SDS011;6723;48.256;16.402;2023-08-12T05:23:08;6.30;;;4.53;;
13309;SDS011;6723;48.256;16.402;2023-08-12T05:25:34;4.90;;;4.40;;
13309;SDS011;6723;48.256;16.402;2023-08-12T05:28:00;6.67;;;4.63;;
13309;SDS011;6723;48.256;16.402;2023-08-12T05:30:25;5.13;;;4.63;;
13309;SDS011;6723;48.256;16.402;2023-08-12T05:32:51;5.27;;;4.33;;
13309;SDS011;6723;48.256;16.402;2023-08-12T05:35:17;7.03;;;5.83;;
13309;SDS011;6723;48.256;16.402;2023-08-12T05:37:42;7.20;;;5.40;;
13309;SDS011;6723;48.256;16.402;2023-08-12T05:40:08;6.50;;;5.67;;
13309;SDS011;6723;48.256;16.402;2023-08-12T05:42:35;5.47;;;4.97;;
13309;SDS011;6723;48.256;16.402;2023-08-12T05:45:02;7.77;;;5.63;;
13309;SDS011;6723;48.256;16.402;2023-08-12T05:47:29;6.20;;;5.47;;
13309;SDS011;6723;48.256;16.402;2023-08-12T05:49:54;6.47;;;5.47;;
13309;SDS011;6723;48.256;16.402;2023-08-12T05:52:20;7.07;;;6.37;;
13309;SDS011;6723;48.256;16.402;2023-08-12T05:54:46;7.07;;;6.00;;
13309;SDS011;6723;48.256;16.402;2023-08-12T05:57:11;7.27;;;6.57;;
13309;SDS011;6723;48.256;16.402;2023-08-12T05:59:37;6.20;;;5.70;;
13309;SDS011;6723;48.256;16.402;2023-08-12T06:02:03;7.57;;;6.23;;
13309;SDS011;6723;48.256;16.402;2023-08-12T06:04:29;6.43;;;5.60;;
13309;SDS011;6723;48.256;16.402;2023-08-12T06:06:54;7.87;;;7.07;;
13309;SDS011;6723;48.256;16.402;2023-08-12T06:09:21;7.57;;;6.37;;
13309;SDS011;6723;48.256;16.402;2023-08-12T06:11:47;7.60;;;6.20;;
13309;SDS011;6723;48.256;16.402;2023-08-12T06:14:13;7.20;;;5.83;;
13309;SDS011;6723;48.256;16.402;2023-08-12T06:16:39;8.77;;;5.77;;
13309;SDS011;6723;48.256;16.402;2023-08-12T06:19:04;8.80;;;7.90;;
13309;SDS011;6723;48.256;16.402;2023-08-12T06:21:30;9.50;;;8.00;;
13309;SDS011;6723;48.256;16.402;2023-08-12T06:23:56;8.17;;;7.37;;
13309;SDS011;6723;48.256;16.402;2023-08-12T06:26:22;7.43;;;6.70;;
13309;SDS011;6723;48.256;16.402;2023-08-12T06:28:47;8.17;;;6.50;;
13309;SDS011;6723;48.256;16.402;2023-08-12T06:31:13;7.30;;;6.63;;
13309;SDS011;6723;48.256;16.402;2023-08-12T06:33:39;7.60;;;6.90;;
13309;SDS011;6723;48.256;16.402;2023-08-12T06:36:05;7.20;;;6.50;;
13309;SDS011;6723;48.256;16.402;2023-08-12T06:38:31;8.10;;;6.30;;
13309;SDS011;6723;48.256;16.402;2023-08-12T06:40:57;10.37;;;5.90;;
13309;SDS011;6723;48.256;16.402;2023-08-12T06:43:26;6.50;;;5.80;;
13309;SDS011;6723;48.256;16.402;2023-08-12T06:45:52;7.23;;;6.57;;
13309;SDS011;6723;48.256;16.402;2023-08-12T06:48:17;7.87;;;6.37;;
13309;SDS011;6723;48.256;16.402;2023-08-12T06:50:43;8.13;;;7.30;;
13309;SDS011;6723;48.256;16.402;2023-08-12T06:53:09;8.97;;;6.97;;
13309;SDS011;6723;48.256;16.402;2023-08-12T06:55:35;9.00;;;7.60;;
13309;SDS011;6723;48.256;16.402;2023-08-12T06:58:00;10.57;;;7.97;;
13309;SDS011;6723;48.256;16.402;2023-08-12T07:00:26;8.83;;;7.97;;
13309;SDS011;6723;48.256;16.402;2023-08-12T07:02:52;9.57;;;8.27;;
13309;SDS011;6723;48.256;16.402;2023-08-12T07:05:17;12.00;;;8.00;;
13309;SDS011;6723;48.256;16.402;2023-08-12T07:07:43;9.10;;;7.60;;
13309;SDS011;6723;48.256;16.402;2023-08-12T07:10:09;9.83;;;7.40;;
13309;SDS011;6723;48.256;16.402;2023-08-12T07:12:36;7.60;;;5.77;;
13309;SDS011;6723;48.256;16.402;2023-08-12T07:15:01;12.97;;;6.73;;
13309;SDS011;6723;48.256;16.402;2023-08-12T07:17:27;8.90;;;5.80;;
13309;SDS011;6723;48.256;16.402;2023-08-12T07:19:53;6.33;;;5.73;;
13309;SDS011;6723;48.256;16.402;2023-08-12T07:22:19;6.57;;;5.97;;
13309;SDS011;6723;48.256;16.402;2023-08-12T07:24:45;5.10;;;4.60;;
13309;SDS011;6723;48.256;16.402;2023-08-12T07:27:11;5.18;;;4.68;;
13309;SDS011;6723;48.256;16.402;2023-08-12T07:29:36;7.28;;;4.28;;
13309;SDS011;6723;48.256;16.402;2023-08-12T07:32:02;7.15;;;4.30;;
13309;SDS011;6723;48.256;16.402;2023-08-12T07:34:28;3.72;;;3.42;;
13309;SDS011;6723;48.256;16.402;2023-08-12T07:36:54;3.35;;;3.05;;
13309;SDS011;6723;48.256;16.402;2023-08-12T07:39:20;3.95;;;3.20;;
13309;SDS011;6723;48.256;16.402;2023-08-12T07:41:46;2.92;;;2.72;;
13309;SDS011;6723;48.256;16.402;2023-08-12T07:44:12;3.40;;;2.70;;
13309;SDS011;6723;48.256;16.402;2023-08-12T07:46:38;3.47;;;2.78;;
13309;SDS011;6723;48.256;16.402;2023-08-12T07:49:04;3.45;;;2.38;;
13309;SDS011;6723;48.256;16.402;2023-08-12T07:51:29;4.70;;;2.33;;
13309;SDS011;6723;48.256;16.402;2023-08-12T07:53:55;2.65;;;2.40;;
13309;SDS011;6723;48.256;16.402;2023-08-12T07:56:21;3.30;;;2.47;;
13309;SDS011;6723;48.256;16.402;2023-08-12T07:58:46;2.78;;;2.47;;
13309;SDS011;6723;48.256;16.402;2023-08-12T08:01:13;3.08;;;2.03;;
13309;SDS011;6723;48.256;16.402;2023-08-12T08:03:38;2.33;;;2.13;;
13309;SDS011;6723;48.256;16.402;2023-08-12T08:06:04;2.35;;;1.88;;
13309;SDS011;6723;48.256;16.402;2023-08-12T08:08:30;3.58;;;2.25;;
13309;SDS011;6723;48.256;16.402;2023-08-12T08:10:56;3.97;;;1.98;;
13309;SDS011;6723;48.256;16.402;2023-08-12T08:13:21;2.75;;;1.85;;
13309;SDS011;6723;48.256;16.402;2023-08-12T08:15:47;2.92;;;1.90;;
13309;SDS011;6723;48.256;16.402;2023-08-12T08:18:13;1.95;;;1.85;;
13309;SDS011;6723;48.256;16.402;2023-08-12T08:20:42;1.90;;;1.70;;
13309;SDS011;6723;48.256;16.402;2023-08-12T08:23:08;1.70;;;1.60;;
13309;SDS011;6723;48.256;16.402;2023-08-12T08:25:34;2.88;;;1.92;;
13309;SDS011;6723;48.256;16.402;2023-08-12T08:28:00;3.20;;;1.92;;
13309;SDS011;6723;48.256;16.402;2023-08-12T08:30:25;3.05;;;2.10;;
13309;SDS011;6723;48.256;16.402;2023-08-12T08:32:51;3.40;;;2.20;;
13309;SDS011;6723;48.256;16.402;2023-08-12T08:35:17;2.50;;;2.30;;
13309;SDS011;6723;48.256;16.402;2023-08-12T08:37:43;3.85;;;2.30;;
13309;SDS011;6723;48.256;16.402;2023-08-12T08:40:08;2.50;;;1.90;;
13309;SDS011;6723;48.256;16.402;2023-08-12T08:42:36;3.15;;;2.40;;
13309;SDS011;6723;48.256;16.402;2023-08-12T08:45:03;3.05;;;2.45;;
13309;SDS011;6723;48.256;16.402;2023-08-12T08:47:36;4.28;;;2.53;;
13309;SDS011;6723;48.256;16.402;2023-08-12T08:50:03;2.63;;;2.30;;
13309;SDS011;6723;48.256;16.402;2023-08-12T08:52:31;3.88;;;2.88;;
13309;SDS011;6723;48.256;16.402;2023-08-12T08:54:57;6.28;;;2.70;;
13309;SDS011;6723;48.256;16.402;2023-08-12T08:57:25;3.40;;;2.80;;
13309;SDS011;6723;48.256;16.402;2023-08-12T08:59:53;4.07;;;2.90;;
13309;SDS011;6723;48.256;16.402;2023-08-12T09:02:19;8.90;;;2.40;;
13309;SDS011;6723;48.256;16.402;2023-08-12T09:04:46;2.85;;;2.47;;
13309;SDS011;6723;48.256;16.402;2023-08-12T09:07:12;3.63;;;2.75;;
13309;SDS011;6723;48.256;16.402;2023-08-12T09:09:45;3.22;;;2.60;;
13309;SDS011;6723;48.256;16.402;2023-08-12T09:12:14;3.10;;;2.47;;
13309;SDS011;6723;48.256;16.402;2023-08-12T09:14:42;5.20;;;2.28;;
13309;SDS011;6723;48.256;16.402;2023-08-12T09:17:08;3.83;;;2.40;;
13309;SDS011;6723;48.256;16.402;2023-08-12T09:19:35;3.42;;;2.33;;
13309;SDS011;6723;48.256;16.402;2023-08-12T09:22:02;2.60;;;2.10;;
13309;SDS011;6723;48.256;16.402;2023-08-12T09:24:30;2.33;;;2.13;;
13309;SDS011;6723;48.256;16.402;2023-08-12T09:26:55;2.67;;;2.20;;
13309;SDS011;6723;48.256;16.402;2023-08-12T09:29:31;2.53;;;2.00;;
13309;SDS011;6723;48.256;16.402;2023-08-12T09:34:46;3.05;;;2.60;;
13309;SDS011;6723;48.256;16.402;2023-08-12T09:37:13;2.70;;;2.45;;
13309;SDS011;6723;48.256;16.402;2023-08-12T09:39:43;2.50;;;2.30;;
13309;SDS011;6723;48.256;16.402;2023-08-12T09:42:12;4.80;;;2.92;;
13309;SDS011;6723;48.256;16.402;2023-08-12T09:44:38;4.05;;;3.75;;
13309;SDS011;6723;48.256;16.402;2023-08-12T09:47:05;3.80;;;2.97;;
13309;SDS011;6723;48.256;16.402;2023-08-12T09:49:31;4.82;;;3.10;;
13309;SDS011;6723;48.256;16.402;2023-08-12T09:51:57;4.13;;;2.95;;
13309;SDS011;6723;48.256;16.402;2023-08-12T09:54:25;3.58;;;3.28;;
13309;SDS011;6723;48.256;16.402;2023-08-12T09:56:57;4.80;;;3.25;;
13309;SDS011;6723;48.256;16.402;2023-08-12T09:59:24;3.80;;;3.08;;
13309;SDS011;6723;48.256;16.402;2023-08-12T10:01:54;4.05;;;3.25;;
13309;SDS011;6723;48.256;16.402;2023-08-12T10:04:22;5.55;;;3.80;;
13309;SDS011;6723;48.256;16.402;2023-08-12T10:06:49;4.18;;;3.20;;
13309;SDS011;6723;48.256;16.402;2023-08-12T10:09:16;3.90;;;2.90;;
13309;SDS011;6723;48.256;16.402;2023-08-12T10:11:43;4.28;;;2.83;;
13309;SDS011;6723;48.256;16.402;2023-08-12T10:14:12;4.30;;;2.75;;
13309;SDS011;6723;48.256;16.402;2023-08-12T10:16:38;4.43;;;3.10;;
13309;SDS011;6723;48.256;16.402;2023-08-12T10:19:10;4.20;;;2.97;;
13309;SDS011;6723;48.256;16.402;2023-08-12T10:21:37;7.18;;;3.17;;
13309;SDS011;6723;48.256;16.402;2023-08-12T10:24:03;4.32;;;3.10;;
13309;SDS011;6723;48.256;16.402;2023-08-12T10:26:32;3.50;;;2.85;;
13309;SDS011;6723;48.256;16.402;2023-08-12T10:28:59;3.55;;;2.92;;
13309;SDS011;6723;48.256;16.402;2023-08-12T10:31:28;3.95;;;2.67;;
13309;SDS011;6723;48.256;16.402;2023-08-12T10:33:54;4.67;;;3.20;;
13309;SDS011;6723;48.256;16.402;2023-08-12T10:36:22;5.17;;;2.97;;
13309;SDS011;6723;48.256;16.402;2023-08-12T10:38:48;3.03;;;2.72;;
13309;SDS011;6723;48.256;16.402;2023-08-12T10:41:24;3.30;;;3.00;;
13309;SDS011;6723;48.256;16.402;2023-08-12T10:44:00;5.83;;;2.57;;
13309;SDS011;6723;48.256;16.402;2023-08-12T10:46:33;4.03;;;2.43;;
13309;SDS011;6723;48.256;16.402;2023-08-12T10:49:09;2.70;;;2.50;;
13309;SDS011;6723;48.256;16.402;2023-08-12T10:51:54;5.13;;;3.50;;
13309;SDS011;6723;48.256;16.402;2023-08-12T10:54:22;6.30;;;2.75;;
13309;SDS011;6723;48.256;16.402;2023-08-12T11:04:43;2.80;;;2.50;;
13309;SDS011;6723;48.256;16.402;2023-08-12T11:07:17;2.55;;;2.30;;
13309;SDS011;6723;48.256;16.402;2023-08-12T11:09:51;3.03;;;2.60;;
13309;SDS011;6723;48.256;16.402;2023-08-12T11:12:18;3.67;;;2.80;;
13309;SDS011;6723;48.256;16.402;2023-08-12T11:14:57;2.80;;;2.05;;
13309;SDS011;6723;48.256;16.402;2023-08-12T11:17:33;3.78;;;2.53;;
13309;SDS011;6723;48.256;16.402;2023-08-12T11:20:01;3.92;;;2.40;;
13309;SDS011;6723;48.256;16.402;2023-08-12T11:22:30;5.72;;;2.65;;
13309;SDS011;6723;48.256;16.402;2023-08-12T11:24:57;4.30;;;2.75;;
13309;SDS011;6723;48.256;16.402;2023-08-12T11:27:23;3.03;;;2.50;;
13309;SDS011;6723;48.256;16.402;2023-08-12T11:29:49;3.20;;;2.40;;
13309;SDS011;6723;48.256;16.402;2023-08-12T11:32:16;4.32;;;2.45;;
13309;SDS011;6723;48.256;16.402;2023-08-12T11:34:43;3.45;;;2.15;;
13309;SDS011;6723;48.256;16.402;2023-08-12T11:37:09;3.05;;;2.20;;
13309;SDS011;6723;48.256;16.402;2023-08-12T11:39:35;4.38;;;2.10;;
13309;SDS011;6723;48.256;16.402;2023-08-12T11:42:02;3.80;;;2.17;;
13309;SDS011;6723;48.256;16.402;2023-08-12T11:44:28;3.15;;;2.38;;
13309;SDS011;6723;48.256;16.402;2023-08-12T11:46:57;3.28;;;2.13;;
13309;SDS011;6723;48.256;16.402;2023-08-12T11:49:22;4.18;;;2.17;;
13309;SDS011;6723;48.256;16.402;2023-08-12T11:51:48;2.42;;;2.00;;
13309;SDS011;6723;48.256;16.402;2023-08-12T11:54:15;6.00;;;2.28;;
13309;SDS011;6723;48.256;16.402;2023-08-12T11:56:41;4.13;;;2.30;;
13309;SDS011;6723;48.256;16.402;2023-08-12T11:59:07;2.15;;;1.95;;
13309;SDS011;6723;48.256;16.402;2023-08-12T12:01:33;2.63;;;2.20;;
13309;SDS011;6723;48.256;16.402;2023-08-12T12:03:59;2.93;;;2.27;;
13309;SDS011;6723;48.256;16.402;2023-08-12T12:06:38;2.63;;;2.30;;
13309;SDS011;6723;48.256;16.402;2023-08-12T12:09:04;3.43;;;2.10;;
13309;SDS011;6723;48.256;16.402;2023-08-12T12:11:32;3.20;;;2.40;;
13309;SDS011;6723;48.256;16.402;2023-08-12T12:14:05;2.88;;;2.17;;
13309;SDS011;6723;48.256;16.402;2023-08-12T12:16:50;4.73;;;2.60;;
13309;SDS011;6723;48.256;16.402;2023-08-12T12:19:22;3.00;;;2.07;;
13309;SDS011;6723;48.256;16.402;2023-08-12T12:21:49;2.50;;;2.30;;
13309;SDS011;6723;48.256;16.402;2023-08-12T12:24:17;2.63;;;2.08;;
13309;SDS011;6723;48.256;16.402;2023-08-12T12:26:44;4.40;;;2.00;;
13309;SDS011;6723;48.256;16.402;2023-08-12T12:29:12;3.80;;;2.50;;
13309;SDS011;6723;48.256;16.402;2023-08-12T12:31:39;2.90;;;2.40;;
13309;SDS011;6723;48.256;16.402;2023-08-12T12:34:07;2.30;;;2.10;;
13309;SDS011;6723;48.256;16.402;2023-08-12T12:36:37;2.93;;;2.10;;
13309;SDS011;6723;48.256;16.402;2023-08-12T12:39:03;4.13;;;2.10;;
13309;SDS011;6723;48.256;16.402;2023-08-12T12:41:30;2.73;;;1.80;;
13309;SDS011;6723;48.256;16.402;2023-08-12T12:44:01;2.10;;;1.90;;
13309;SDS011;6723;48.256;16.402;2023-08-12T12:46:27;5.70;;;2.10;;
13309;SDS011;6723;48.256;16.402;2023-08-12T12:48:54;2.10;;;1.93;;
13309;SDS011;6723;48.256;16.402;2023-08-12T12:51:19;2.97;;;2.00;;
13309;SDS011;6723;48.256;16.402;2023-08-12T12:53:45;3.90;;;2.30;;
13309;SDS011;6723;48.256;16.402;2023-08-12T12:56:11;2.07;;;1.90;;
13309;SDS011;6723;48.256;16.402;2023-08-12T12:58:37;1.97;;;1.83;;
13309;SDS011;6723;48.256;16.402;2023-08-12T13:01:04;2.87;;;1.90;;
13309;SDS011;6723;48.256;16.402;2023-08-12T13:03:30;4.87;;;2.30;;
13309;SDS011;6723;48.256;16.402;2023-08-12T13:05:57;1.90;;;1.70;;
13309;SDS011;6723;48.256;16.402;2023-08-12T13:08:23;3.70;;;2.00;;
13309;SDS011;6723;48.256;16.402;2023-08-12T13:10:50;4.83;;;2.30;;
13309;SDS011;6723;48.256;16.402;2023-08-12T13:13:16;3.90;;;2.30;;
13309;SDS011;6723;48.256;16.402;2023-08-12T13:15:44;2.60;;;1.90;;
13309;SDS011;6723;48.256;16.402;2023-08-12T13:18:11;2.60;;;2.20;;
13309;SDS011;6723;48.256;16.402;2023-08-12T13:20:37;4.40;;;2.40;;
13309;SDS011;6723;48.256;16.402;2023-08-12T13:23:03;3.00;;;2.20;;
13309;SDS011;6723;48.256;16.402;2023-08-12T13:25:30;5.83;;;2.03;;
13309;SDS011;6723;48.256;16.402;2023-08-12T13:27:58;3.10;;;1.70;;
13309;SDS011;6723;48.256;16.402;2023-08-12T13:30:24;2.87;;;2.03;;
13309;SDS011;6723;48.256;16.402;2023-08-12T13:32:50;3.23;;;2.10;;
13309;SDS011;6723;48.256;16.402;2023-08-12T13:35:16;5.40;;;1.90;;
13309;SDS011;6723;48.256;16.402;2023-08-12T13:37:42;2.20;;;1.93;;
13309;SDS011;6723;48.256;16.402;2023-08-12T13:40:08;3.93;;;2.00;;
13309;SDS011;6723;48.256;16.402;2023-08-12T13:42:36;1.77;;;1.67;;
13309;SDS011;6723;48.256;16.402;2023-08-12T13:45:03;3.03;;;2.00;;
13309;SDS011;6723;48.256;16.402;2023-08-12T13:47:29;3.00;;;1.80;;
13309;SDS011;6723;48.256;16.402;2023-08-12T13:49:55;2.50;;;1.90;;
13309;SDS011;6723;48.256;16.402;2023-08-12T13:52:22;1.70;;;1.60;;
13309;SDS011;6723;48.256;16.402;2023-08-12T13:54:47;4.33;;;2.10;;
13309;SDS011;6723;48.256;16.402;2023-08-12T13:57:13;2.13;;;1.93;;
13309;SDS011;6723;48.256;16.402;2023-08-12T13:59:39;3.23;;;1.80;;
13309;SDS011;6723;48.256;16.402;2023-08-12T14:02:09;2.73;;;1.80;;
13309;SDS011;6723;48.256;16.402;2023-08-12T14:04:38;2.83;;;1.77;;
13309;SDS011;6723;48.256;16.402;2023-08-12T14:07:04;1.97;;;1.70;;
13309;SDS011;6723;48.256;16.402;2023-08-12T14:09:30;1.97;;;1.87;;
13309;SDS011;6723;48.256;16.402;2023-08-12T14:11:56;2.87;;;2.00;;
13309;SDS011;6723;48.256;16.402;2023-08-12T14:14:22;4.13;;;1.97;;
13309;SDS011;6723;48.256;16.402;2023-08-12T14:16:48;2.53;;;2.00;;
13309;SDS011;6723;48.256;16.402;2023-08-12T14:19:13;4.50;;;2.03;;
13309;SDS011;6723;48.256;16.402;2023-08-12T14:21:42;5.53;;;1.60;;
13309;SDS011;6723;48.256;16.402;2023-08-12T14:24:08;2.67;;;1.80;;
13309;SDS011;6723;48.256;16.402;2023-08-12T14:26:35;3.13;;;1.87;;
13309;SDS011;6723;48.256;16.402;2023-08-12T14:29:00;2.67;;;1.90;;
13309;SDS011;6723;48.256;16.402;2023-08-12T14:31:26;3.27;;;2.07;;
13309;SDS011;6723;48.256;16.402;2023-08-12T14:33:52;4.17;;;1.90;;
13309;SDS011;6723;48.256;16.402;2023-08-12T14:36:18;2.43;;;1.80;;
13309;SDS011;6723;48.256;16.402;2023-08-12T14:38:44;2.37;;;1.80;;
13309;SDS011;6723;48.256;16.402;2023-08-12T14:41:10;2.27;;;2.07;;
13309;SDS011;6723;48.256;16.402;2023-08-12T14:43:35;3.33;;;2.40;;
13309;SDS011;6723;48.256;16.402;2023-08-12T14:46:02;2.00;;;1.80;;
13309;SDS011;6723;48.256;16.402;2023-08-12T14:48:28;3.83;;;2.07;;
13309;SDS011;6723;48.256;16.402;2023-08-12T14:50:54;4.00;;;2.07;;
13309;SDS011;6723;48.256;16.402;2023-08-12T14:53:20;3.00;;;2.00;;
13309;SDS011;6723;48.256;16.402;2023-08-12T14:55:46;5.43;;;1.77;;
13309;SDS011;6723;48.256;16.402;2023-08-12T14:58:12;4.53;;;2.20;;
13309;SDS011;6723;48.256;16.402;2023-08-12T15:00:38;3.47;;;2.17;;